createdAt,value
2018-08-16T00:00:29.157Z,9.80
2018-08-16T00:01:32.748Z,9.63
2018-08-16T00:02:36.127Z,9.80
2018-08-16T00:03:39.527Z,9.90
2018-08-16T00:04:43.027Z,10.27
2018-08-16T00:05:46.540Z,10.27
2018-08-16T00:06:50.028Z,9.40
2018-08-16T00:07:53.725Z,10.20
2018-08-16T00:08:57.330Z,9.95
2018-08-16T00:10:00.764Z,10.10
2018-08-16T00:11:04.281Z,10.10
2018-08-16T00:12:07.654Z,9.77
2018-08-16T00:13:11.119Z,9.63
2018-08-16T00:14:14.643Z,10.03
2018-08-16T00:15:19.519Z,10.30
2018-08-16T00:16:23.141Z,9.78
2018-08-16T00:17:26.509Z,8.70
2018-08-16T00:18:30.029Z,10.10
2018-08-16T00:19:33.403Z,9.70
2018-08-16T00:20:36.779Z,10.10
2018-08-16T00:21:40.244Z,10.48
2018-08-16T00:22:44.016Z,9.73
2018-08-16T00:23:47.639Z,9.63
2018-08-16T00:24:51.111Z,10.00
2018-08-16T00:25:54.715Z,9.13
2018-08-16T00:26:58.453Z,9.57
2018-08-16T00:28:02.105Z,9.83
2018-08-16T00:29:05.506Z,10.00
2018-08-16T00:30:16.188Z,9.53
2018-08-16T00:31:19.615Z,9.97
2018-08-16T00:32:22.956Z,9.80
2018-08-16T00:33:26.428Z,10.25
2018-08-16T00:34:29.876Z,9.40
2018-08-16T00:35:33.504Z,10.43
2018-08-16T00:36:36.956Z,10.53
2018-08-16T00:37:41.011Z,10.23
2018-08-16T00:38:44.438Z,9.73
2018-08-16T00:39:47.950Z,9.40
2018-08-16T00:40:51.324Z,10.27
2018-08-16T00:41:55.022Z,9.80
2018-08-16T00:42:58.637Z,10.33
2018-08-16T00:44:02.192Z,9.67
2018-08-16T00:45:07.772Z,10.60
2018-08-16T00:46:11.494Z,10.10
2018-08-16T00:47:15.225Z,10.53
2018-08-16T00:48:18.878Z,9.77
2018-08-16T00:49:22.459Z,9.40
2018-08-16T00:50:25.966Z,9.87
2018-08-16T00:51:35.996Z,9.80
2018-08-16T00:52:39.446Z,10.13
2018-08-16T00:53:42.896Z,10.40
2018-08-16T00:54:46.565Z,8.50
2018-08-16T00:55:50.072Z,9.73
2018-08-16T00:56:53.672Z,9.43
2018-08-16T00:57:57.194Z,8.90
2018-08-16T00:59:00.615Z,9.47
2018-08-16T01:00:05.682Z,8.87
2018-08-16T01:01:09.340Z,10.00
2018-08-16T01:02:12.820Z,9.18
2018-08-16T01:03:16.271Z,9.00
2018-08-16T01:04:19.616Z,9.28
2018-08-16T01:05:23.168Z,10.10
2018-08-16T01:06:26.955Z,9.57
2018-08-16T01:07:30.668Z,10.47
2018-08-16T01:08:34.374Z,10.93
2018-08-16T01:09:37.938Z,10.40
2018-08-16T01:10:41.456Z,10.72
2018-08-16T01:11:44.982Z,10.10
2018-08-16T01:12:48.456Z,10.73
2018-08-16T01:13:52.260Z,10.47
2018-08-16T01:14:56.081Z,10.10
2018-08-16T01:15:59.747Z,11.13
2018-08-16T01:17:03.358Z,10.37
2018-08-16T01:18:06.988Z,10.53
2018-08-16T01:19:10.602Z,10.20
2018-08-16T01:20:14.353Z,11.10
2018-08-16T01:21:17.815Z,11.00
2018-08-16T01:22:21.274Z,10.90
2018-08-16T01:23:24.711Z,10.70
2018-08-16T01:24:28.535Z,10.80
2018-08-16T01:25:32.190Z,10.80
2018-08-16T01:26:35.914Z,10.07
2018-08-16T01:27:39.489Z,10.30
2018-08-16T01:28:42.946Z,10.80
2018-08-16T01:29:46.335Z,10.58
2018-08-16T01:30:50.028Z,10.30
2018-08-16T01:31:53.519Z,9.83
2018-08-16T01:32:57.042Z,10.40
2018-08-16T01:34:00.601Z,11.17
2018-08-16T01:35:05.624Z,10.03
2018-08-16T01:36:09.218Z,10.00
2018-08-16T01:37:12.678Z,10.80
2018-08-16T01:38:16.000Z,10.10
2018-08-16T01:39:19.648Z,10.03
2018-08-16T01:40:23.205Z,10.67
2018-08-16T01:41:26.674Z,10.50
2018-08-16T01:42:30.559Z,10.53
2018-08-16T01:43:34.073Z,10.00
2018-08-16T01:44:37.475Z,11.27
2018-08-16T01:45:41.056Z,11.23
2018-08-16T01:46:44.643Z,10.30
2018-08-16T01:47:47.983Z,10.00
2018-08-16T01:48:51.517Z,10.82
2018-08-16T01:49:54.933Z,10.53
2018-08-16T01:50:58.573Z,10.17
2018-08-16T01:52:02.299Z,10.90
2018-08-16T01:53:06.324Z,11.40
2018-08-16T01:54:09.786Z,11.43
2018-08-16T01:55:13.118Z,10.53
2018-08-16T01:56:16.453Z,10.57
2018-08-16T01:57:19.864Z,11.80
2018-08-16T01:58:23.460Z,10.90
2018-08-16T01:59:27.107Z,11.53
2018-08-16T02:00:30.740Z,11.37
2018-08-16T02:01:34.346Z,11.03
2018-08-16T02:02:38.170Z,11.20
2018-08-16T02:03:41.660Z,11.00
2018-08-16T02:04:45.027Z,12.37
2018-08-16T02:05:48.494Z,11.80
2018-08-16T02:06:52.505Z,11.43
2018-08-16T02:07:55.880Z,10.33
2018-08-16T02:08:59.555Z,11.10
2018-08-16T02:10:03.233Z,10.25
2018-08-16T02:11:06.762Z,11.40
2018-08-16T02:12:10.152Z,12.00
2018-08-16T02:13:13.499Z,11.50
2018-08-16T02:14:17.418Z,11.63
2018-08-16T02:15:20.955Z,11.47
2018-08-16T02:16:24.725Z,11.15
2018-08-16T02:17:28.342Z,11.20
2018-08-16T02:18:32.180Z,11.17
2018-08-16T02:19:35.749Z,11.23
2018-08-16T02:20:39.216Z,11.33
2018-08-16T02:21:42.769Z,12.07
2018-08-16T02:22:46.189Z,12.73
2018-08-16T02:23:49.529Z,12.77
2018-08-16T02:24:53.115Z,13.27
2018-08-16T02:25:56.822Z,12.60
2018-08-16T02:27:00.435Z,12.77
2018-08-16T02:28:04.441Z,12.37
2018-08-16T02:29:07.911Z,13.53
2018-08-16T02:30:11.657Z,13.37
2018-08-16T02:31:15.280Z,13.17
2018-08-16T02:32:18.734Z,10.97
2018-08-16T02:33:22.092Z,12.07
2018-08-16T02:34:25.612Z,12.37
2018-08-16T02:35:29.103Z,12.27
2018-08-16T02:36:32.683Z,12.53
2018-08-16T02:37:36.071Z,13.20
2018-08-16T02:38:39.497Z,13.43
2018-08-16T02:39:42.866Z,12.87
2018-08-16T02:40:46.396Z,13.20
2018-08-16T02:41:49.923Z,12.87
2018-08-16T02:42:53.644Z,12.27
2018-08-16T02:43:57.230Z,12.17
2018-08-16T02:45:00.625Z,12.17
2018-08-16T02:46:04.066Z,12.77
2018-08-16T02:47:07.530Z,12.30
2018-08-16T02:48:11.118Z,13.07
2018-08-16T02:49:14.650Z,13.30
2018-08-16T02:50:18.081Z,12.47
2018-08-16T02:51:21.762Z,13.10
2018-08-16T02:52:25.174Z,13.40
2018-08-16T02:53:28.567Z,12.63
2018-08-16T02:54:32.188Z,13.73
2018-08-16T02:55:35.593Z,12.03
2018-08-16T02:56:39.106Z,13.73
2018-08-16T02:57:43.161Z,13.60
2018-08-16T02:58:46.611Z,13.60
2018-08-16T02:59:50.390Z,12.40
2018-08-16T03:00:53.808Z,12.67
2018-08-16T03:01:57.487Z,12.60
2018-08-16T03:03:01.115Z,13.10
2018-08-16T03:04:04.585Z,13.03
2018-08-16T03:05:08.130Z,12.40
2018-08-16T03:06:11.550Z,12.90
2018-08-16T03:07:15.012Z,13.30
2018-08-16T03:08:18.388Z,12.70
2018-08-16T03:09:21.786Z,12.77
2018-08-16T03:10:25.163Z,16.10
2018-08-16T03:11:28.691Z,14.13
2018-08-16T03:12:32.250Z,14.17
2018-08-16T03:13:35.828Z,14.07
2018-08-16T03:14:40.421Z,13.87
2018-08-16T03:15:43.928Z,13.70
2018-08-16T03:16:47.342Z,13.90
2018-08-16T03:17:50.798Z,13.83
2018-08-16T03:18:54.164Z,14.73
2018-08-16T03:19:57.574Z,15.03
2018-08-16T03:21:01.140Z,13.90
2018-08-16T03:22:04.836Z,14.27
2018-08-16T03:23:08.543Z,14.07
2018-08-16T03:24:12.092Z,13.43
2018-08-16T03:25:15.417Z,13.40
2018-08-16T03:26:18.831Z,13.90
2018-08-16T03:27:22.223Z,13.67
2018-08-16T03:28:25.755Z,14.17
2018-08-16T03:29:29.100Z,12.57
2018-08-16T03:30:32.676Z,14.50
2018-08-16T03:31:36.093Z,14.07
2018-08-16T03:32:39.472Z,13.63
2018-08-16T03:33:43.048Z,14.10
2018-08-16T03:34:46.604Z,13.77
2018-08-16T03:35:50.175Z,14.20
2018-08-16T03:36:53.940Z,13.70
2018-08-16T03:37:57.392Z,13.77
2018-08-16T03:39:01.155Z,14.07
2018-08-16T03:40:06.174Z,13.07
2018-08-16T03:41:09.799Z,12.93
2018-08-16T03:42:13.170Z,12.30
2018-08-16T03:43:16.680Z,13.60
2018-08-16T03:44:20.166Z,12.53
2018-08-16T03:45:23.720Z,12.80
2018-08-16T03:46:27.012Z,12.67
2018-08-16T03:47:30.585Z,13.07
2018-08-16T03:48:33.883Z,14.07
2018-08-16T03:49:37.367Z,13.03
2018-08-16T03:50:40.750Z,13.10
2018-08-16T03:51:44.287Z,12.50
2018-08-16T03:52:47.842Z,12.77
2018-08-16T03:53:51.329Z,11.67
2018-08-16T03:54:55.522Z,12.83
2018-08-16T03:55:58.880Z,12.37
2018-08-16T03:57:02.597Z,13.30
2018-08-16T03:58:06.312Z,12.47
2018-08-16T03:59:09.730Z,12.90
2018-08-16T04:00:13.138Z,12.90
2018-08-16T04:01:16.758Z,13.20
2018-08-16T04:02:20.230Z,13.43
2018-08-16T04:03:23.757Z,12.97
2018-08-16T04:04:27.138Z,12.83
2018-08-16T04:05:30.457Z,12.97
2018-08-16T04:06:33.786Z,11.90
2018-08-16T04:07:37.305Z,12.67
2018-08-16T04:08:40.867Z,13.00
2018-08-16T04:09:44.482Z,12.50
2018-08-16T04:10:48.015Z,11.73
2018-08-16T04:11:51.422Z,11.47
2018-08-16T04:12:54.745Z,12.93
2018-08-16T04:13:58.046Z,12.57
2018-08-16T04:15:01.564Z,12.70
2018-08-16T04:16:05.112Z,13.67
2018-08-16T04:17:08.832Z,13.27
2018-08-16T04:18:12.180Z,12.43
2018-08-16T04:19:15.602Z,12.07
2018-08-16T04:20:18.951Z,12.87
2018-08-16T04:21:22.339Z,13.50
2018-08-16T04:22:25.957Z,12.63
2018-08-16T04:23:29.822Z,12.43
2018-08-16T04:24:33.258Z,12.63
2018-08-16T04:25:36.662Z,13.17
2018-08-16T04:26:40.120Z,12.40
2018-08-16T04:27:43.649Z,12.73
2018-08-16T04:28:47.123Z,12.37
2018-08-16T04:29:50.554Z,12.90
2018-08-16T04:30:54.021Z,14.20
2018-08-16T04:31:57.398Z,13.30
2018-08-16T04:33:00.727Z,13.30
2018-08-16T04:34:04.359Z,13.50
2018-08-16T04:35:07.852Z,13.93
2018-08-16T04:36:11.342Z,13.20
2018-08-16T04:37:14.875Z,13.17
2018-08-16T04:38:18.619Z,14.03
2018-08-16T04:39:22.373Z,13.23
2018-08-16T04:40:25.904Z,13.27
2018-08-16T04:41:29.236Z,13.20
2018-08-16T04:42:32.624Z,13.53
2018-08-16T04:43:36.247Z,13.37
2018-08-16T04:44:39.690Z,13.77
2018-08-16T04:45:43.059Z,13.63
2018-08-16T04:46:46.411Z,12.60
2018-08-16T04:47:49.820Z,13.10
2018-08-16T04:48:53.661Z,13.00
2018-08-16T04:49:56.943Z,12.00
2018-08-16T04:51:00.531Z,13.10
2018-08-16T04:52:04.117Z,13.93
2018-08-16T04:53:08.119Z,12.83
2018-08-16T04:54:11.919Z,13.63
2018-08-16T04:55:15.286Z,13.27
2018-08-16T04:56:18.705Z,13.33
2018-08-16T04:57:22.081Z,12.50
2018-08-16T04:58:25.619Z,13.30
2018-08-16T04:59:29.259Z,13.53
2018-08-16T05:00:32.713Z,13.23
2018-08-16T05:01:36.177Z,13.80
2018-08-16T05:02:39.577Z,13.93
2018-08-16T05:03:43.012Z,13.63
2018-08-16T05:04:46.324Z,12.70
2018-08-16T05:05:49.787Z,14.20
2018-08-16T05:06:53.420Z,14.10
2018-08-16T05:07:58.336Z,12.93
2018-08-16T05:09:03.105Z,13.17
2018-08-16T05:10:10.273Z,13.47
2018-08-16T05:11:15.029Z,13.90
2018-08-16T05:12:19.247Z,12.70
2018-08-16T05:13:24.117Z,13.40
2018-08-16T05:14:29.589Z,12.70
2018-08-16T05:15:35.500Z,12.53
2018-08-16T05:16:40.393Z,14.90
2018-08-16T05:17:43.839Z,12.80
2018-08-16T05:18:47.410Z,13.20
2018-08-16T05:19:51.245Z,12.80
2018-08-16T05:20:54.802Z,12.90
2018-08-16T05:21:58.202Z,12.77
2018-08-16T05:23:01.576Z,12.47
2018-08-16T05:24:05.256Z,12.53
2018-08-16T05:25:09.006Z,13.57
2018-08-16T05:26:12.532Z,12.60
2018-08-16T05:27:16.343Z,11.40
2018-08-16T05:28:19.937Z,11.77
2018-08-16T05:29:23.597Z,12.67
2018-08-16T05:30:27.019Z,13.30
2018-08-16T05:31:30.459Z,11.50
2018-08-16T05:32:33.918Z,11.60
2018-08-16T05:33:37.635Z,11.45
2018-08-16T05:34:41.288Z,11.93
2018-08-16T05:35:45.174Z,10.88
2018-08-16T05:36:48.781Z,11.20
2018-08-16T05:37:53.211Z,12.30
2018-08-16T05:38:57.717Z,12.07
2018-08-16T05:40:03.084Z,11.23
2018-08-16T05:41:07.468Z,12.07
2018-08-16T05:42:11.888Z,11.65
2018-08-16T05:43:16.030Z,11.38
2018-08-16T05:44:19.570Z,12.07
2018-08-16T05:45:23.358Z,12.10
2018-08-16T05:46:26.894Z,11.93
2018-08-16T05:47:30.455Z,11.48
2018-08-16T05:48:33.851Z,11.30
2018-08-16T05:49:37.402Z,10.98
2018-08-16T05:50:40.905Z,11.70
2018-08-16T05:51:44.426Z,11.35
2018-08-16T05:52:47.919Z,12.63
2018-08-16T05:53:51.219Z,11.08
2018-08-16T05:54:54.622Z,11.78
2018-08-16T05:55:57.920Z,10.85
2018-08-16T05:57:01.719Z,11.28
2018-08-16T05:58:05.676Z,10.95
2018-08-16T05:59:09.853Z,12.10
2018-08-16T06:00:14.382Z,11.23
2018-08-16T06:01:17.929Z,10.53
2018-08-16T06:02:21.517Z,9.93
2018-08-16T06:03:25.022Z,10.73
2018-08-16T06:04:28.444Z,11.13
2018-08-16T06:05:31.936Z,10.93
2018-08-16T06:06:35.551Z,10.72
2018-08-16T06:07:39.315Z,12.40
2018-08-16T06:08:43.053Z,12.03
2018-08-16T06:09:46.523Z,11.20
2018-08-16T06:10:50.011Z,11.25
2018-08-16T06:11:53.628Z,11.28
2018-08-16T06:12:57.159Z,11.68
2018-08-16T06:14:00.509Z,11.60
2018-08-16T06:15:05.480Z,9.23
2018-08-16T06:16:09.227Z,11.85
2018-08-16T06:17:13.208Z,12.63
2018-08-16T06:18:16.868Z,12.30
2018-08-16T06:19:20.763Z,12.28
2018-08-16T06:20:24.219Z,12.53
2018-08-16T06:21:27.936Z,10.00
2018-08-16T06:22:31.335Z,11.38
2018-08-16T06:23:35.039Z,12.18
2018-08-16T06:24:38.600Z,11.45
2018-08-16T06:25:42.054Z,12.03
2018-08-16T06:26:45.592Z,9.28
2018-08-16T06:27:49.211Z,9.63
2018-08-16T06:28:52.887Z,10.20
2018-08-16T06:29:56.908Z,10.53
2018-08-16T06:31:00.803Z,12.30
2018-08-16T06:32:04.658Z,12.47
2018-08-16T06:33:08.494Z,10.85
2018-08-16T06:34:12.337Z,10.72
2018-08-16T06:35:16.419Z,10.23
2018-08-16T06:36:20.286Z,10.30
2018-08-16T06:37:30.230Z,11.00
2018-08-16T06:38:33.801Z,11.60
2018-08-16T06:39:37.486Z,11.35
2018-08-16T06:40:41.160Z,10.43
2018-08-16T06:41:44.750Z,11.48
2018-08-16T06:42:48.639Z,12.78
2018-08-16T06:43:52.138Z,13.65
2018-08-16T06:44:55.837Z,10.32
2018-08-16T06:45:59.633Z,12.80
2018-08-16T06:47:03.746Z,11.10
2018-08-16T06:48:07.773Z,11.60
2018-08-16T06:49:11.225Z,11.95
2018-08-16T06:50:14.808Z,11.33
2018-08-16T06:51:18.422Z,11.93
2018-08-16T06:52:22.104Z,10.80
2018-08-16T06:53:25.693Z,11.88
2018-08-16T06:54:29.258Z,11.68
2018-08-16T06:55:32.884Z,11.80
2018-08-16T06:56:36.466Z,12.37
2018-08-16T06:57:40.458Z,12.60
2018-08-16T06:58:44.058Z,11.25
2018-08-16T06:59:47.689Z,12.68
2018-08-16T07:00:51.225Z,12.88
2018-08-16T07:01:54.599Z,13.50
2018-08-16T07:02:58.090Z,13.48
2018-08-16T07:04:01.751Z,11.73
2018-08-16T07:05:07.504Z,13.60
2018-08-16T07:06:11.229Z,12.70
2018-08-16T07:07:15.068Z,11.30
2018-08-16T07:08:18.637Z,12.00
2018-08-16T07:09:22.333Z,14.80
2018-08-16T07:10:25.884Z,13.85
2018-08-16T07:11:29.385Z,13.32
2018-08-16T07:12:33.693Z,14.05
2018-08-16T07:13:37.404Z,13.72
2018-08-16T07:14:41.024Z,13.20
2018-08-16T07:15:44.770Z,15.35
2018-08-16T07:16:49.227Z,14.05
2018-08-16T07:17:53.063Z,7.95
2018-08-16T07:18:56.727Z,14.60
2018-08-16T07:20:00.372Z,15.20
2018-08-16T07:21:04.180Z,14.75
2018-08-16T07:22:07.837Z,14.65
2018-08-16T07:23:11.244Z,14.63
2018-08-16T07:24:14.807Z,13.25
2018-08-16T07:25:18.672Z,12.73
2018-08-16T07:26:22.233Z,11.70
2018-08-16T07:27:26.088Z,12.85
2018-08-16T07:28:29.581Z,12.68
2018-08-16T07:29:32.904Z,12.68
2018-08-16T07:30:36.267Z,14.73
2018-08-16T07:31:39.671Z,14.45
2018-08-16T07:32:43.336Z,14.35
2018-08-16T07:33:46.797Z,10.38
2018-08-16T07:34:50.380Z,12.10
2018-08-16T07:35:53.856Z,13.58
2018-08-16T07:36:57.543Z,12.33
2018-08-16T07:38:00.980Z,14.13
2018-08-16T07:39:08.808Z,11.78
2018-08-16T07:40:12.200Z,14.30
2018-08-16T07:41:15.612Z,13.83
2018-08-16T07:42:19.303Z,14.80
2018-08-16T07:43:22.711Z,14.28
2018-08-16T07:44:26.322Z,13.88
2018-08-16T07:45:29.961Z,10.63
2018-08-16T07:46:34.257Z,11.25
2018-08-16T07:47:37.958Z,10.78
2018-08-16T07:48:41.842Z,12.03
2018-08-16T07:49:45.355Z,13.08
2018-08-16T07:50:48.917Z,13.18
2018-08-16T07:51:52.528Z,12.65
2018-08-16T07:52:56.108Z,13.45
2018-08-16T07:53:59.948Z,11.30
2018-08-16T07:55:04.016Z,13.05
2018-08-16T07:56:07.744Z,12.90
2018-08-16T07:57:11.471Z,12.23
2018-08-16T07:58:15.247Z,14.30
2018-08-16T07:59:19.059Z,13.05
2018-08-16T08:00:22.743Z,13.70
2018-08-16T08:01:26.216Z,13.90
2018-08-16T08:02:29.884Z,12.03
2018-08-16T08:03:33.391Z,13.03
2018-08-16T08:04:37.231Z,12.85
2018-08-16T08:05:40.777Z,12.50
2018-08-16T08:06:44.816Z,10.28
2018-08-16T08:07:48.350Z,11.80
2018-08-16T08:08:52.035Z,10.43
2018-08-16T08:09:55.624Z,13.72
2018-08-16T08:10:59.531Z,14.00
2018-08-16T08:12:03.271Z,13.18
2018-08-16T08:13:07.043Z,15.65
2018-08-16T08:14:10.683Z,14.58
2018-08-16T08:15:15.479Z,13.70
2018-08-16T08:16:19.249Z,14.40
2018-08-16T08:17:23.313Z,13.13
2018-08-16T08:18:28.007Z,14.98
2018-08-16T08:19:33.854Z,14.55
2018-08-16T08:20:37.846Z,10.43
2018-08-16T08:21:41.561Z,14.63
2018-08-16T08:22:45.415Z,15.70
2018-08-16T08:23:49.023Z,14.30
2018-08-16T08:24:52.595Z,14.47
2018-08-16T08:25:56.090Z,13.72
2018-08-16T08:26:59.734Z,14.98
2018-08-16T08:28:02.615Z,14.63
2018-08-16T08:29:05.487Z,13.55
2018-08-16T08:30:13.268Z,13.53
2018-08-16T08:31:16.894Z,15.08
2018-08-16T08:32:20.708Z,13.53
2018-08-16T08:33:23.755Z,13.50
2018-08-16T08:34:27.213Z,14.25
2018-08-16T08:35:30.854Z,12.78
2018-08-16T08:36:51.562Z,13.93
2018-08-16T08:38:10.583Z,14.18
2018-08-16T08:39:15.758Z,15.72
2018-08-16T08:40:19.545Z,15.08
2018-08-16T08:41:23.363Z,15.03
2018-08-16T08:42:27.154Z,11.93
2018-08-16T08:43:47.923Z,16.15
2018-08-16T08:44:51.398Z,13.98
2018-08-16T08:45:55.113Z,15.72
2018-08-16T08:46:58.724Z,16.30
2018-08-16T08:48:02.264Z,11.95
2018-08-16T08:49:05.872Z,15.40
2018-08-16T08:50:11.721Z,14.98
2018-08-16T08:51:15.343Z,16.12
2018-08-16T08:52:19.214Z,15.25
2018-08-16T08:54:50.516Z,16.30
2018-08-16T08:56:11.033Z,15.65
2018-08-16T08:57:32.236Z,14.45
2018-08-16T08:58:51.430Z,16.10
2018-08-16T08:59:55.008Z,14.25
2018-08-16T09:00:58.390Z,13.85
2018-08-16T09:02:01.861Z,14.50
2018-08-16T09:03:06.305Z,14.00
2018-08-16T09:04:09.896Z,14.28
2018-08-16T09:05:13.633Z,13.78
2018-08-16T09:06:17.337Z,13.58
2018-08-16T09:07:21.714Z,14.05
2018-08-16T09:08:25.181Z,13.50
2018-08-16T09:09:29.027Z,13.18
2018-08-16T09:11:02.706Z,12.28
2018-08-16T09:13:27.074Z,13.58
2018-08-16T09:15:47.059Z,11.57
2018-08-16T09:16:50.619Z,13.62
2018-08-16T09:17:54.673Z,12.47
2018-08-16T09:18:58.799Z,12.60
2018-08-16T09:20:02.510Z,12.40
2018-08-16T09:21:06.896Z,11.05
2018-08-16T09:22:10.604Z,11.12
2018-08-16T09:23:14.344Z,11.03
2018-08-16T09:24:19.243Z,10.85
2018-08-16T09:25:23.075Z,9.38
2018-08-16T09:26:33.591Z,10.45
2018-08-16T09:27:37.064Z,11.00
2018-08-16T09:28:41.211Z,10.20
2018-08-16T09:30:28.101Z,10.15
2018-08-16T09:31:48.621Z,10.23
2018-08-16T09:33:09.071Z,11.03
2018-08-16T09:34:22.219Z,9.85
2018-08-16T09:35:27.020Z,10.00
2018-08-16T09:36:31.696Z,10.25
2018-08-16T09:37:36.949Z,9.73
2018-08-16T09:38:40.556Z,9.95
2018-08-16T09:39:44.416Z,9.80
2018-08-16T09:40:48.800Z,10.38
2018-08-16T09:41:52.745Z,8.78
2018-08-16T09:42:56.596Z,9.18
2018-08-16T09:44:00.764Z,9.03
2018-08-16T09:47:25.464Z,9.10
2018-08-16T09:48:42.982Z,8.48
2018-08-16T09:49:48.982Z,8.18
2018-08-16T09:50:52.639Z,7.92
2018-08-16T09:51:57.640Z,8.15
2018-08-16T09:53:01.322Z,8.83
2018-08-16T09:54:05.779Z,9.03
2018-08-16T09:55:09.354Z,8.45
2018-08-16T09:56:12.924Z,7.75
2018-08-16T09:57:17.759Z,7.95
2018-08-16T09:58:21.319Z,7.17
2018-08-16T09:59:25.037Z,6.83
2018-08-16T10:00:34.236Z,6.95
2018-08-16T10:01:38.331Z,6.83
2018-08-16T10:02:41.825Z,6.50
2018-08-16T10:03:45.320Z,6.50
2018-08-16T10:04:48.872Z,6.62
2018-08-16T10:05:52.699Z,6.70
2018-08-16T10:06:56.734Z,6.50
2018-08-16T10:08:00.263Z,6.58
2018-08-16T10:09:10.776Z,5.95
2018-08-16T10:10:14.364Z,5.40
2018-08-16T10:11:17.916Z,5.58
2018-08-16T10:12:21.400Z,5.85
2018-08-16T10:13:24.913Z,5.62
2018-08-16T10:14:28.521Z,5.15
2018-08-16T10:15:32.053Z,5.10
2018-08-16T10:16:36.343Z,4.90
2018-08-16T10:17:40.001Z,4.50
2018-08-16T10:18:43.541Z,5.20
2018-08-16T10:19:47.093Z,5.50
2018-08-16T10:20:50.893Z,5.42
2018-08-16T10:21:54.559Z,5.80
2018-08-16T10:22:57.989Z,5.35
2018-08-16T10:24:02.096Z,5.50
2018-08-16T10:25:05.619Z,4.72
2018-08-16T10:26:09.407Z,5.20
2018-08-16T10:27:13.248Z,5.17
2018-08-16T10:28:16.753Z,4.80
2018-08-16T10:29:20.268Z,5.25
2018-08-16T10:30:23.719Z,5.28
2018-08-16T10:31:28.380Z,5.28
2018-08-16T10:32:31.814Z,4.80
2018-08-16T10:33:35.426Z,4.30
2018-08-16T10:34:39.218Z,4.53
2018-08-16T10:35:43.223Z,5.00
2018-08-16T10:36:46.804Z,4.95
2018-08-16T10:37:50.189Z,4.35
2018-08-16T10:38:53.831Z,4.20
2018-08-16T10:39:57.453Z,4.58
2018-08-16T10:41:01.179Z,4.95
2018-08-16T10:42:05.068Z,4.40
2018-08-16T10:43:08.792Z,4.15
2018-08-16T10:44:12.968Z,4.28
2018-08-16T10:45:16.595Z,4.17
2018-08-16T10:46:20.251Z,4.40
2018-08-16T10:47:24.864Z,4.33
2018-08-16T10:48:28.527Z,4.83
2018-08-16T10:49:31.999Z,4.70
2018-08-16T10:50:35.658Z,4.37
2018-08-16T10:51:40.394Z,4.15
2018-08-16T10:52:46.454Z,4.40
2018-08-16T10:53:50.000Z,4.17
2018-08-16T10:54:54.179Z,4.00
2018-08-16T10:55:58.652Z,4.05
2018-08-16T10:57:02.346Z,4.30
2018-08-16T10:58:06.215Z,4.42
2018-08-16T10:59:10.088Z,4.65
2018-08-16T11:00:13.889Z,4.22
2018-08-16T11:01:17.787Z,4.37
2018-08-16T11:02:21.139Z,4.50
2018-08-16T11:03:25.174Z,4.00
2018-08-16T11:04:28.772Z,4.00
2018-08-16T11:05:32.355Z,3.83
2018-08-16T11:06:36.072Z,3.75
2018-08-16T11:07:39.965Z,4.47
2018-08-16T11:08:43.722Z,4.20
2018-08-16T11:09:47.559Z,4.10
2018-08-16T11:10:51.948Z,4.45
2018-08-16T11:11:55.355Z,4.00
2018-08-16T11:12:58.894Z,3.83
2018-08-16T11:14:02.675Z,4.30
2018-08-16T11:15:06.984Z,4.10
2018-08-16T11:16:10.599Z,4.70
2018-08-16T11:17:15.152Z,4.30
2018-08-16T11:18:18.747Z,4.33
2018-08-16T11:19:22.437Z,4.62
2018-08-16T11:20:26.350Z,4.62
2018-08-16T11:21:30.124Z,4.70
2018-08-16T11:22:33.605Z,4.20
2018-08-16T11:23:39.178Z,4.35
2018-08-16T11:24:42.573Z,4.40
2018-08-16T11:25:46.226Z,4.80
2018-08-16T11:26:50.177Z,5.72
2018-08-16T11:27:54.121Z,4.83
2018-08-16T11:28:57.596Z,4.78
2018-08-16T11:30:01.055Z,4.05
2018-08-16T11:31:04.717Z,4.83
2018-08-16T11:32:08.289Z,4.28
2018-08-16T11:33:12.551Z,4.25
2018-08-16T11:34:16.009Z,4.17
2018-08-16T11:35:19.940Z,4.50
2018-08-16T11:36:24.053Z,5.83
2018-08-16T11:37:28.850Z,4.90
2018-08-16T11:38:35.875Z,4.67
2018-08-16T11:39:40.177Z,5.30
2018-08-16T11:40:43.762Z,5.17
2018-08-16T11:41:47.196Z,5.10
2018-08-16T11:42:52.318Z,5.17
2018-08-16T11:43:57.172Z,4.75
2018-08-16T11:45:02.105Z,4.90
2018-08-16T11:46:06.388Z,4.20
2018-08-16T11:47:10.409Z,4.62
2018-08-16T11:48:24.575Z,4.67
2018-08-16T11:49:28.895Z,4.20
2018-08-16T11:50:33.095Z,5.33
2018-08-16T11:51:38.004Z,5.12
2018-08-16T11:52:42.087Z,4.28
2018-08-16T11:53:46.633Z,4.25
2018-08-16T11:54:50.436Z,4.62
2018-08-16T11:55:59.059Z,4.90
2018-08-16T11:57:03.912Z,5.12
2018-08-16T11:58:08.665Z,4.70
2018-08-16T11:59:12.359Z,4.60
2018-08-16T12:00:15.957Z,4.67
2018-08-16T12:01:19.961Z,4.70
2018-08-16T12:02:27.132Z,4.47
2018-08-16T12:03:31.531Z,4.15
2018-08-16T12:04:37.239Z,4.30
2018-08-16T12:05:40.931Z,4.33
2018-08-16T12:06:44.759Z,4.28
2018-08-16T12:07:49.353Z,4.65
2018-08-16T12:08:56.652Z,4.37
2018-08-16T12:10:00.324Z,3.83
2018-08-16T12:11:04.333Z,4.30
2018-08-16T12:12:08.579Z,4.25
2018-08-16T12:13:12.919Z,4.22
2018-08-16T12:14:16.655Z,4.50
2018-08-16T12:15:20.236Z,3.90
2018-08-16T12:16:23.713Z,4.37
2018-08-16T12:17:27.286Z,4.20
2018-08-16T12:18:31.123Z,4.10
2018-08-16T12:19:34.621Z,4.70
2018-08-16T12:20:38.399Z,4.40
2018-08-16T12:21:42.074Z,4.62
2018-08-16T12:22:45.445Z,4.53
2018-08-16T12:23:49.093Z,4.10
2018-08-16T12:24:52.709Z,4.42
2018-08-16T12:25:56.292Z,4.35
2018-08-16T12:26:59.997Z,4.03
2018-08-16T12:28:04.854Z,4.10
2018-08-16T12:29:08.502Z,4.22
2018-08-16T12:30:12.077Z,4.30
2018-08-16T12:31:15.778Z,3.83
2018-08-16T12:32:19.665Z,4.17
2018-08-16T12:33:23.181Z,4.35
2018-08-16T12:34:26.932Z,3.87
2018-08-16T12:35:30.693Z,4.25
2018-08-16T12:36:34.497Z,3.95
2018-08-16T12:37:38.040Z,4.15
2018-08-16T12:38:41.620Z,4.15
2018-08-16T12:39:45.523Z,4.03
2018-08-16T12:40:50.198Z,3.92
2018-08-16T12:41:53.121Z,4.00
2018-08-16T12:42:56.687Z,4.20
2018-08-16T12:44:00.406Z,3.70
2018-08-16T12:45:05.094Z,3.98
2018-08-16T12:46:15.200Z,4.40
2018-08-16T12:47:19.192Z,4.20
2018-08-16T12:48:22.684Z,4.10
2018-08-16T12:49:26.272Z,4.03
2018-08-16T12:50:29.997Z,3.70
2018-08-16T12:51:33.554Z,3.98
2018-08-16T12:52:37.254Z,4.40
2018-08-16T12:53:40.644Z,3.90
2018-08-16T12:54:44.135Z,3.90
2018-08-16T12:55:47.562Z,3.98
2018-08-16T12:56:51.225Z,3.67
2018-08-16T12:57:54.747Z,4.17
2018-08-16T12:58:58.300Z,3.85
2018-08-16T13:00:02.629Z,3.85
2018-08-16T13:01:06.384Z,4.10
2018-08-16T13:02:15.308Z,4.12
2018-08-16T13:03:19.182Z,3.67
2018-08-16T13:04:23.798Z,4.00
2018-08-16T13:05:27.486Z,3.60
2018-08-16T13:06:31.852Z,3.77
2018-08-16T13:07:35.786Z,3.92
2018-08-16T13:08:39.279Z,4.05
2018-08-16T13:09:42.903Z,3.52
2018-08-16T13:10:46.800Z,3.85
2018-08-16T13:11:50.499Z,3.60
2018-08-16T13:12:54.183Z,4.45
2018-08-16T13:13:57.926Z,3.98
2018-08-16T13:15:05.343Z,4.00
2018-08-16T13:16:09.259Z,3.83
2018-08-16T13:17:14.081Z,3.80
2018-08-16T13:18:17.628Z,3.62
2018-08-16T13:19:21.296Z,3.52
2018-08-16T13:20:24.779Z,3.92
2018-08-16T13:21:28.639Z,3.65
2018-08-16T13:22:32.273Z,3.75
2018-08-16T13:23:37.547Z,3.70
2018-08-16T13:24:41.142Z,3.72
2018-08-16T13:25:45.242Z,3.80
2018-08-16T13:26:48.832Z,3.77
2018-08-16T13:27:52.924Z,3.50
2018-08-16T13:28:56.954Z,3.83
2018-08-16T13:30:00.863Z,4.10
2018-08-16T13:31:04.570Z,3.77
2018-08-16T13:32:08.447Z,3.80
2018-08-16T13:33:14.269Z,3.83
2018-08-16T13:34:18.295Z,3.60
2018-08-16T13:35:21.913Z,3.85
2018-08-16T13:36:25.527Z,3.80
2018-08-16T13:37:30.198Z,3.75
2018-08-16T13:38:33.872Z,3.42
2018-08-16T13:39:37.687Z,3.58
2018-08-16T13:40:41.237Z,3.35
2018-08-16T13:41:44.814Z,3.90
2018-08-16T13:42:48.439Z,3.58
2018-08-16T13:43:52.404Z,3.30
2018-08-16T13:44:56.065Z,3.67
2018-08-16T13:45:59.571Z,3.27
2018-08-16T13:47:03.327Z,3.72
2018-08-16T13:48:07.933Z,3.33
2018-08-16T13:49:11.415Z,3.87
2018-08-16T13:50:14.970Z,3.55
2018-08-16T13:51:18.500Z,3.17
2018-08-16T13:52:22.358Z,3.92
2018-08-16T13:53:25.923Z,3.60
2018-08-16T13:54:29.537Z,3.50
2018-08-16T13:55:33.007Z,3.72
2018-08-16T13:56:36.859Z,3.90
2018-08-16T13:57:40.441Z,3.30
2018-08-16T13:58:44.073Z,3.72
2018-08-16T13:59:47.884Z,3.75
2018-08-16T14:00:52.235Z,3.67
2018-08-16T14:01:55.806Z,3.70
2018-08-16T14:02:59.352Z,3.55